createdAt,value
2023-01-23T00:09:36.536Z,70.79
2023-01-23T00:20:04.639Z,70.57
2023-01-23T00:30:32.381Z,69.88
2023-01-23T00:40:59.901Z,70.07
2023-01-23T00:51:27.658Z,69.96
2023-01-23T01:01:55.242Z,69.94
2023-01-23T01:12:22.862Z,70.16
2023-01-23T01:22:50.609Z,70.17
2023-01-23T01:33:18.170Z,70.06
2023-01-23T01:43:46.622Z,69.90
2023-01-23T01:54:22.725Z,69.60
2023-01-23T02:04:53.925Z,70.16
2023-01-23T02:15:23.509Z,69.75
2023-01-23T02:25:59.035Z,69.91
2023-01-23T02:36:29.858Z,70.13
2023-01-23T02:46:58.551Z,69.92
2023-01-23T02:57:24.560Z,69.84
2023-01-23T03:07:52.145Z,69.76
2023-01-23T03:18:19.674Z,69.62
2023-01-23T03:29:04.861Z,69.79
2023-01-23T03:39:50.490Z,69.61
2023-01-23T03:50:18.977Z,70.13
2023-01-23T04:00:45.164Z,70.53
2023-01-23T04:11:13.655Z,71.42
2023-01-23T04:21:41.223Z,71.69
2023-01-23T04:32:09.969Z,71.67
2023-01-23T04:42:35.897Z,71.68
2023-01-23T04:53:04.730Z,71.52
2023-01-23T05:03:30.674Z,71.01
2023-01-23T05:13:58.254Z,70.64
2023-01-23T05:24:25.813Z,70.52
2023-01-23T05:34:53.393Z,71.01
2023-01-23T05:45:21.094Z,71.06
2023-01-23T05:55:48.568Z,70.93
2023-01-23T06:06:16.335Z,71.84
2023-01-23T06:16:44.078Z,72.23
2023-01-23T06:27:11.784Z,72.30
2023-01-23T06:37:39.441Z,72.45
2023-01-23T06:48:07.489Z,72.40
2023-01-23T06:58:35.767Z,72.83
2023-01-23T07:09:03.722Z,72.86
2023-01-23T07:19:31.406Z,73.26
2023-01-23T07:29:58.940Z,73.55
2023-01-23T07:40:26.643Z,73.58
2023-01-23T07:50:54.200Z,73.43
2023-01-23T08:01:22.099Z,73.41
2023-01-23T08:11:52.046Z,73.53
2023-01-23T08:22:19.681Z,73.77
2023-01-23T08:32:47.265Z,74.11
2023-01-23T08:43:15.197Z,74.15
2023-01-23T08:53:43.451Z,74.67
2023-01-23T09:04:11.009Z,74.86
2023-01-23T09:14:38.571Z,74.88
2023-01-23T09:25:06.772Z,75.20
2023-01-23T09:35:35.074Z,75.14
2023-01-23T09:46:09.072Z,75.19
2023-01-23T09:56:44.224Z,75.56
2023-01-23T10:07:28.710Z,75.72
2023-01-23T10:18:07.409Z,75.45
2023-01-23T10:28:39.489Z,75.34
2023-01-23T10:39:12.855Z,75.44
2023-01-23T10:49:46.693Z,75.65
2023-01-23T11:00:28.681Z,76.11
2023-01-23T11:11:16.908Z,75.36
2023-01-23T11:21:55.235Z,75.27
2023-01-23T11:32:24.701Z,75.56
2023-01-23T11:42:53.650Z,75.82
2023-01-23T11:53:41.433Z,75.82
2023-01-23T12:04:21.748Z,75.97
2023-01-23T12:14:52.047Z,75.84
2023-01-23T12:25:31.896Z,75.64
2023-01-23T12:36:10.045Z,75.59
2023-01-23T12:46:42.874Z,75.63
2023-01-23T12:57:12.211Z,75.56
2023-01-23T13:07:47.159Z,75.54
2023-01-23T13:18:28.331Z,75.16
2023-01-23T13:28:56.747Z,75.22
2023-01-23T13:39:30.445Z,75.28
2023-01-23T14:22:45.842Z,74.91
2023-01-23T14:33:19.892Z,74.74
2023-01-23T14:43:48.757Z,74.56
2023-01-23T14:54:23.288Z,74.44
2023-01-23T15:05:11.632Z,74.15
2023-01-23T15:15:40.063Z,74.09
2023-01-23T15:26:26.897Z,74.49
2023-01-23T15:36:57.132Z,74.82
2023-01-23T15:47:24.762Z,74.86
2023-01-23T15:57:53.517Z,75.29
2023-01-23T16:08:22.986Z,75.15
2023-01-23T16:18:50.602Z,75.46
2023-01-23T16:29:33.129Z,75.46
2023-01-23T16:40:01.534Z,75.55
2023-01-23T16:50:35.788Z,75.91
2023-01-23T17:01:10.103Z,75.86
2023-01-23T17:11:41.462Z,76.08
2023-01-23T17:22:17.038Z,76.28
2023-01-23T17:32:47.243Z,76.32
2023-01-23T17:43:15.539Z,76.70
2023-01-23T17:53:43.120Z,76.64
2023-01-23T18:04:16.518Z,77.13
2023-01-23T18:14:55.793Z,77.19
2023-01-23T18:25:26.358Z,77.26
2023-01-23T18:36:14.009Z,77.12
2023-01-23T18:46:42.495Z,77.27
2023-01-23T18:57:29.097Z,77.35
2023-01-23T19:07:58.167Z,77.46
2023-01-23T19:18:40.802Z,77.14
2023-01-23T19:29:26.072Z,77.38
2023-01-23T19:39:53.689Z,77.28
2023-01-23T19:50:22.354Z,77.51
2023-01-23T20:00:48.474Z,77.40
2023-01-23T20:11:16.008Z,77.41
2023-01-23T20:21:43.972Z,77.52
2023-01-23T20:32:11.496Z,77.73
2023-01-23T20:42:39.126Z,77.70
2023-01-23T20:53:23.739Z,77.94
2023-01-23T21:03:51.788Z,77.89
2023-01-23T21:14:19.643Z,78.02
2023-01-23T21:24:47.218Z,78.41
2023-01-23T21:35:14.821Z,78.41
2023-01-23T21:45:42.521Z,77.99
2023-01-23T21:56:11.171Z,78.16
2023-01-23T22:06:38.009Z,78.24
2023-01-23T22:17:06.505Z,78.20
2023-01-23T22:27:34.098Z,78.02
2023-01-23T22:38:01.680Z,78.18
2023-01-23T22:48:29.214Z,77.96
2023-01-23T22:58:58.270Z,78.15
2023-01-23T23:09:25.696Z,78.12
2023-01-23T23:19:53.228Z,77.87
2023-01-23T23:30:21.398Z,77.82
2023-01-23T23:40:56.946Z,77.73
2023-01-23T23:51:26.676Z,77.77
